sensor_id;sensor_type;location;lat;lon;timestamp;temperature;humidity
17815;DHT22;9031;50.974;11.330;2023-10-13T00:01:24;17.00;99.90
17815;DHT22;9031;50.974;11.330;2023-10-13T00:03:50;17.00;99.90
17815;DHT22;9031;50.974;11.330;2023-10-13T00:06:19;17.00;99.90
17815;DHT22;9031;50.974;11.330;2023-10-13T00:08:45;17.00;99.90
17815;DHT22;9031;50.974;11.330;2023-10-13T00:11:14;17.00;99.90
17815;DHT22;9031;50.974;11.330;2023-10-13T00:13:41;17.00;99.90
17815;DHT22;9031;50.974;11.330;2023-10-13T00:16:20;17.00;99.90
17815;DHT22;9031;50.974;11.330;2023-10-13T00:18:53;16.90;99.90
17815;DHT22;9031;50.974;11.330;2023-10-13T00:21:19;16.90;99.90
17815;DHT22;9031;50.974;11.330;2023-10-13T00:24:01;16.90;99.90
17815;DHT22;9031;50.974;11.330;2023-10-13T00:26:28;16.90;99.90
17815;DHT22;9031;50.974;11.330;2023-10-13T00:28:56;16.80;99.90
17815;DHT22;9031;50.974;11.330;2023-10-13T00:31:41;16.80;99.90
17815;DHT22;9031;50.974;11.330;2023-10-13T00:34:08;16.80;99.90
17815;DHT22;9031;50.974;11.330;2023-10-13T00:36:37;16.70;99.90
17815;DHT22;9031;50.974;11.330;2023-10-13T00:39:12;16.70;99.90
17815;DHT22;9031;50.974;11.330;2023-10-13T00:41:41;16.70;99.90
17815;DHT22;9031;50.974;11.330;2023-10-13T00:44:24;16.80;99.90
17815;DHT22;9031;50.974;11.330;2023-10-13T00:47:10;16.90;99.90
17815;DHT22;9031;50.974;11.330;2023-10-13T00:49:43;16.80;99.90
17815;DHT22;9031;50.974;11.330;2023-10-13T00:52:12;16.90;99.90
17815;DHT22;9031;50.974;11.330;2023-10-13T00:54:38;16.90;99.90
17815;DHT22;9031;50.974;11.330;2023-10-13T00:57:04;16.80;99.90
17815;DHT22;9031;50.974;11.330;2023-10-13T00:59:37;16.80;99.90
17815;DHT22;9031;50.974;11.330;2023-10-13T01:02:03;16.80;99.90
17815;DHT22;9031;50.974;11.330;2023-10-13T01:04:49;16.70;99.90
17815;DHT22;9031;50.974;11.330;2023-10-13T01:07:15;16.70;99.90
17815;DHT22;9031;50.974;11.330;2023-10-13T01:09:47;16.70;99.90
17815;DHT22;9031;50.974;11.330;2023-10-13T01:12:13;16.70;99.90
17815;DHT22;9031;50.974;11.330;2023-10-13T01:14:40;16.70;99.90
17815;DHT22;9031;50.974;11.330;2023-10-13T01:17:05;16.80;99.90
17815;DHT22;9031;50.974;11.330;2023-10-13T01:19:36;16.80;99.90
17815;DHT22;9031;50.974;11.330;2023-10-13T01:22:04;16.80;99.90
17815;DHT22;9031;50.974;11.330;2023-10-13T01:24:31;16.80;99.90
17815;DHT22;9031;50.974;11.330;2023-10-13T01:27:03;16.80;99.90
17815;DHT22;9031;50.974;11.330;2023-10-13T01:29:35;16.80;99.90
17815;DHT22;9031;50.974;11.330;2023-10-13T01:32:01;16.80;99.90
17815;DHT22;9031;50.974;11.330;2023-10-13T01:34:27;16.70;99.90
17815;DHT22;9031;50.974;11.330;2023-10-13T01:36:53;16.70;99.90
17815;DHT22;9031;50.974;11.330;2023-10-13T01:39:20;16.70;99.90
17815;DHT22;9031;50.974;11.330;2023-10-13T01:41:46;16.70;99.90
17815;DHT22;9031;50.974;11.330;2023-10-13T01:44:19;16.70;99.90
17815;DHT22;9031;50.974;11.330;2023-10-13T01:46:45;16.60;99.90
17815;DHT22;9031;50.974;11.330;2023-10-13T01:49:13;16.50;99.90
17815;DHT22;9031;50.974;11.330;2023-10-13T01:51:41;16.50;99.90
17815;DHT22;9031;50.974;11.330;2023-10-13T01:54:06;16.40;99.90
17815;DHT22;9031;50.974;11.330;2023-10-13T01:56:37;16.40;99.90
17815;DHT22;9031;50.974;11.330;2023-10-13T01:59:08;16.40;99.90
17815;DHT22;9031;50.974;11.330;2023-10-13T02:01:34;16.40;99.90
17815;DHT22;9031;50.974;11.330;2023-10-13T02:04:02;16.40;99.90
17815;DHT22;9031;50.974;11.330;2023-10-13T02:06:31;16.50;99.90
17815;DHT22;9031;50.974;11.330;2023-10-13T02:09:06;16.50;99.90
17815;DHT22;9031;50.974;11.330;2023-10-13T02:11:50;16.50;99.90
17815;DHT22;9031;50.974;11.330;2023-10-13T02:14:19;16.60;99.90
17815;DHT22;9031;50.974;11.330;2023-10-13T02:16:47;16.60;99.90
17815;DHT22;9031;50.974;11.330;2023-10-13T02:19:15;16.60;99.90
17815;DHT22;9031;50.974;11.330;2023-10-13T02:21:42;16.70;99.90
17815;DHT22;9031;50.974;11.330;2023-10-13T02:24:10;16.70;99.90
17815;DHT22;9031;50.974;11.330;2023-10-13T02:26:42;16.70;99.90
17815;DHT22;9031;50.974;11.330;2023-10-13T02:29:07;16.70;99.90
17815;DHT22;9031;50.974;11.330;2023-10-13T02:31:37;16.70;99.90
17815;DHT22;9031;50.974;11.330;2023-10-13T02:34:03;16.70;99.90
17815;DHT22;9031;50.974;11.330;2023-10-13T02:36:38;16.60;99.90
17815;DHT22;9031;50.974;11.330;2023-10-13T02:39:14;16.60;99.90
17815;DHT22;9031;50.974;11.330;2023-10-13T02:41:42;16.60;99.90
17815;DHT22;9031;50.974;11.330;2023-10-13T02:44:14;16.60;99.90
17815;DHT22;9031;50.974;11.330;2023-10-13T02:46:55;16.50;99.90
17815;DHT22;9031;50.974;11.330;2023-10-13T02:49:30;16.40;99.90
17815;DHT22;9031;50.974;11.330;2023-10-13T02:52:02;16.50;99.90
17815;DHT22;9031;50.974;11.330;2023-10-13T02:54:33;16.40;99.90
17815;DHT22;9031;50.974;11.330;2023-10-13T02:57:05;16.50;99.90
17815;DHT22;9031;50.974;11.330;2023-10-13T02:59:32;16.60;99.90
17815;DHT22;9031;50.974;11.330;2023-10-13T03:02:05;16.60;99.90
17815;DHT22;9031;50.974;11.330;2023-10-13T03:05:09;16.60;99.90
17815;DHT22;9031;50.974;11.330;2023-10-13T03:07:37;16.60;99.90
17815;DHT22;9031;50.974;11.330;2023-10-13T03:10:04;16.70;99.90
17815;DHT22;9031;50.974;11.330;2023-10-13T03:12:39;16.60;99.90
17815;DHT22;9031;50.974;11.330;2023-10-13T03:15:06;16.60;99.90
17815;DHT22;9031;50.974;11.330;2023-10-13T03:17:46;16.50;99.90
17815;DHT22;9031;50.974;11.330;2023-10-13T03:20:12;16.50;99.90
17815;DHT22;9031;50.974;11.330;2023-10-13T03:22:39;16.40;99.90
17815;DHT22;9031;50.974;11.330;2023-10-13T03:25:05;16.40;99.90
17815;DHT22;9031;50.974;11.330;2023-10-13T03:27:34;16.40;99.90
17815;DHT22;9031;50.974;11.330;2023-10-13T03:30:19;16.40;99.90
17815;DHT22;9031;50.974;11.330;2023-10-13T03:32:47;16.30;99.90
17815;DHT22;9031;50.974;11.330;2023-10-13T03:35:19;16.30;99.90
17815;DHT22;9031;50.974;11.330;2023-10-13T03:37:54;16.40;99.90
17815;DHT22;9031;50.974;11.330;2023-10-13T03:40:20;16.30;99.90
17815;DHT22;9031;50.974;11.330;2023-10-13T03:42:53;16.30;99.90
17815;DHT22;9031;50.974;11.330;2023-10-13T03:45:39;16.30;99.90
17815;DHT22;9031;50.974;11.330;2023-10-13T03:48:16;16.30;99.90
17815;DHT22;9031;50.974;11.330;2023-10-13T03:50:52;16.20;99.90
17815;DHT22;9031;50.974;11.330;2023-10-13T03:53:37;16.20;99.90
17815;DHT22;9031;50.974;11.330;2023-10-13T03:56:18;16.10;99.90
17815;DHT22;9031;50.974;11.330;2023-10-13T03:58:54;16.10;99.90
17815;DHT22;9031;50.974;11.330;2023-10-13T04:01:23;16.10;99.90
17815;DHT22;9031;50.974;11.330;2023-10-13T04:04:08;16.20;99.90
17815;DHT22;9031;50.974;11.330;2023-10-13T04:06:41;16.30;99.90
17815;DHT22;9031;50.974;11.330;2023-10-13T04:09:16;16.30;99.90
17815;DHT22;9031;50.974;11.330;2023-10-13T04:12:06;16.40;99.90
17815;DHT22;9031;50.974;11.330;2023-10-13T04:14:41;16.40;99.90
17815;DHT22;9031;50.974;11.330;2023-10-13T04:17:22;16.50;99.90
17815;DHT22;9031;50.974;11.330;2023-10-13T04:19:54;16.50;99.90
17815;DHT22;9031;50.974;11.330;2023-10-13T04:22:32;16.50;99.90
17815;DHT22;9031;50.974;11.330;2023-10-13T04:25:23;16.50;99.90
17815;DHT22;9031;50.974;11.330;2023-10-13T04:28:13;16.60;99.90
17815;DHT22;9031;50.974;11.330;2023-10-13T04:33:30;16.50;99.90
17815;DHT22;9031;50.974;11.330;2023-10-13T04:36:14;16.50;99.90
17815;DHT22;9031;50.974;11.330;2023-10-13T04:38:54;16.50;99.90
17815;DHT22;9031;50.974;11.330;2023-10-13T04:41:27;16.50;99.90
17815;DHT22;9031;50.974;11.330;2023-10-13T04:44:05;16.60;99.90
17815;DHT22;9031;50.974;11.330;2023-10-13T04:46:49;16.60;99.90
17815;DHT22;9031;50.974;11.330;2023-10-13T04:49:15;16.70;99.90
17815;DHT22;9031;50.974;11.330;2023-10-13T04:52:04;16.70;99.90
17815;DHT22;9031;50.974;11.330;2023-10-13T04:54:37;16.80;99.90
17815;DHT22;9031;50.974;11.330;2023-10-13T04:57:16;16.80;99.90
17815;DHT22;9031;50.974;11.330;2023-10-13T05:00:03;16.80;99.90
17815;DHT22;9031;50.974;11.330;2023-10-13T05:02:43;16.80;99.90
17815;DHT22;9031;50.974;11.330;2023-10-13T05:05:20;16.80;99.90
17815;DHT22;9031;50.974;11.330;2023-10-13T05:08:05;16.90;99.90
17815;DHT22;9031;50.974;11.330;2023-10-13T05:10:49;16.90;99.90
17815;DHT22;9031;50.974;11.330;2023-10-13T05:13:33;16.80;99.90
17815;DHT22;9031;50.974;11.330;2023-10-13T05:16:17;16.80;99.90
17815;DHT22;9031;50.974;11.330;2023-10-13T05:19:01;16.80;99.90
17815;DHT22;9031;50.974;11.330;2023-10-13T05:21:45;16.80;99.90
17815;DHT22;9031;50.974;11.330;2023-10-13T05:24:29;16.80;99.90
17815;DHT22;9031;50.974;11.330;2023-10-13T05:27:13;16.80;99.90
17815;DHT22;9031;50.974;11.330;2023-10-13T05:29:57;16.80;99.90
17815;DHT22;9031;50.974;11.330;2023-10-13T05:32:41;16.80;99.90
17815;DHT22;9031;50.974;11.330;2023-10-13T05:35:25;16.80;99.90
17815;DHT22;9031;50.974;11.330;2023-10-13T05:38:09;16.90;99.90
17815;DHT22;9031;50.974;11.330;2023-10-13T05:40:58;16.90;99.90
17815;DHT22;9031;50.974;11.330;2023-10-13T05:43:43;16.90;99.90
17815;DHT22;9031;50.974;11.330;2023-10-13T05:46:27;16.90;99.90
17815;DHT22;9031;50.974;11.330;2023-10-13T05:48:54;17.00;99.90
17815;DHT22;9031;50.974;11.330;2023-10-13T05:51:30;17.00;99.90
17815;DHT22;9031;50.974;11.330;2023-10-13T05:54:09;17.00;99.90
17815;DHT22;9031;50.974;11.330;2023-10-13T05:56:39;17.00;99.90
17815;DHT22;9031;50.974;11.330;2023-10-13T05:59:23;17.00;99.90
17815;DHT22;9031;50.974;11.330;2023-10-13T06:02:07;17.00;99.90
17815;DHT22;9031;50.974;11.330;2023-10-13T06:04:51;17.00;99.90
17815;DHT22;9031;50.974;11.330;2023-10-13T06:07:35;17.10;99.90
17815;DHT22;9031;50.974;11.330;2023-10-13T06:10:19;17.20;99.90
17815;DHT22;9031;50.974;11.330;2023-10-13T06:13:03;17.20;99.90
17815;DHT22;9031;50.974;11.330;2023-10-13T06:15:47;17.20;99.90
17815;DHT22;9031;50.974;11.330;2023-10-13T06:18:31;17.20;99.90
17815;DHT22;9031;50.974;11.330;2023-10-13T06:21:15;17.20;99.90
17815;DHT22;9031;50.974;11.330;2023-10-13T06:23:59;17.30;99.90
17815;DHT22;9031;50.974;11.330;2023-10-13T06:26:43;17.40;99.90
17815;DHT22;9031;50.974;11.330;2023-10-13T06:29:27;17.40;99.90
17815;DHT22;9031;50.974;11.330;2023-10-13T06:31:52;17.40;99.90
17815;DHT22;9031;50.974;11.330;2023-10-13T06:34:18;17.50;99.90
17815;DHT22;9031;50.974;11.330;2023-10-13T06:36:46;17.60;99.90
17815;DHT22;9031;50.974;11.330;2023-10-13T06:39:12;17.60;99.90
17815;DHT22;9031;50.974;11.330;2023-10-13T06:41:56;17.70;99.90
17815;DHT22;9031;50.974;11.330;2023-10-13T06:44:22;17.80;99.90
17815;DHT22;9031;50.974;11.330;2023-10-13T06:46:49;17.90;99.90
17815;DHT22;9031;50.974;11.330;2023-10-13T06:49:15;18.00;99.90
17815;DHT22;9031;50.974;11.330;2023-10-13T06:51:43;18.00;99.90
17815;DHT22;9031;50.974;11.330;2023-10-13T06:54:12;18.00;99.90
17815;DHT22;9031;50.974;11.330;2023-10-13T06:56:47;18.00;99.90
17815;DHT22;9031;50.974;11.330;2023-10-13T06:59:16;18.10;99.90
17815;DHT22;9031;50.974;11.330;2023-10-13T07:01:42;18.00;99.90
17815;DHT22;9031;50.974;11.330;2023-10-13T07:04:10;18.10;99.90
17815;DHT22;9031;50.974;11.330;2023-10-13T07:06:40;18.10;99.90
17815;DHT22;9031;50.974;11.330;2023-10-13T07:09:18;18.20;99.90
17815;DHT22;9031;50.974;11.330;2023-10-13T07:12:05;18.20;99.90
17815;DHT22;9031;50.974;11.330;2023-10-13T07:14:51;18.30;99.90
17815;DHT22;9031;50.974;11.330;2023-10-13T07:17:37;18.40;99.90
17815;DHT22;9031;50.974;11.330;2023-10-13T07:20:06;18.40;99.90
17815;DHT22;9031;50.974;11.330;2023-10-13T07:22:40;18.60;99.90
17815;DHT22;9031;50.974;11.330;2023-10-13T07:25:11;18.60;99.90
17815;DHT22;9031;50.974;11.330;2023-10-13T07:27:43;18.70;99.90
17815;DHT22;9031;50.974;11.330;2023-10-13T07:30:09;18.70;99.90
17815;DHT22;9031;50.974;11.330;2023-10-13T07:32:38;18.60;99.90
17815;DHT22;9031;50.974;11.330;2023-10-13T07:35:03;18.70;99.90
17815;DHT22;9031;50.974;11.330;2023-10-13T07:37:32;18.70;99.90
17815;DHT22;9031;50.974;11.330;2023-10-13T07:39:59;18.80;99.90
17815;DHT22;9031;50.974;11.330;2023-10-13T07:42:27;18.80;99.90
17815;DHT22;9031;50.974;11.330;2023-10-13T07:45:05;18.90;99.90
17815;DHT22;9031;50.974;11.330;2023-10-13T07:47:30;18.90;99.90
17815;DHT22;9031;50.974;11.330;2023-10-13T07:49:58;19.00;99.90
17815;DHT22;9031;50.974;11.330;2023-10-13T07:52:23;19.10;99.90
17815;DHT22;9031;50.974;11.330;2023-10-13T07:55:01;19.10;99.90
17815;DHT22;9031;50.974;11.330;2023-10-13T07:57:45;19.10;99.90
17815;DHT22;9031;50.974;11.330;2023-10-13T08:00:23;19.10;99.90
17815;DHT22;9031;50.974;11.330;2023-10-13T08:03:08;19.10;99.90
17815;DHT22;9031;50.974;11.330;2023-10-13T08:05:43;19.20;99.90
17815;DHT22;9031;50.974;11.330;2023-10-13T08:08:30;19.30;99.90
17815;DHT22;9031;50.974;11.330;2023-10-13T08:11:08;19.40;99.90
17815;DHT22;9031;50.974;11.330;2023-10-13T08:13:38;19.30;99.90
17815;DHT22;9031;50.974;11.330;2023-10-13T08:16:04;19.30;99.90
17815;DHT22;9031;50.974;11.330;2023-10-13T08:18:37;19.30;99.90
17815;DHT22;9031;50.974;11.330;2023-10-13T08:21:06;19.30;99.90
17815;DHT22;9031;50.974;11.330;2023-10-13T08:23:32;19.30;99.90
17815;DHT22;9031;50.974;11.330;2023-10-13T08:26:16;19.30;99.90
17815;DHT22;9031;50.974;11.330;2023-10-13T08:29:01;19.20;99.90
17815;DHT22;9031;50.974;11.330;2023-10-13T08:31:49;19.20;99.90
17815;DHT22;9031;50.974;11.330;2023-10-13T08:34:35;19.40;99.90
17815;DHT22;9031;50.974;11.330;2023-10-13T08:37:13;19.60;99.90
17815;DHT22;9031;50.974;11.330;2023-10-13T08:39:56;19.80;99.90
17815;DHT22;9031;50.974;11.330;2023-10-13T08:42:31;19.80;99.90
17815;DHT22;9031;50.974;11.330;2023-10-13T08:47:35;19.80;99.90
17815;DHT22;9031;50.974;11.330;2023-10-13T08:50:03;19.70;99.90
17815;DHT22;9031;50.974;11.330;2023-10-13T08:52:58;19.70;99.90
17815;DHT22;9031;50.974;11.330;2023-10-13T08:55:25;19.60;99.90
17815;DHT22;9031;50.974;11.330;2023-10-13T08:58:03;19.70;99.90
17815;DHT22;9031;50.974;11.330;2023-10-13T09:00:41;19.80;99.90
17815;DHT22;9031;50.974;11.330;2023-10-13T09:03:40;19.80;99.90
17815;DHT22;9031;50.974;11.330;2023-10-13T09:06:12;19.90;99.90
17815;DHT22;9031;50.974;11.330;2023-10-13T09:08:40;19.80;99.90
17815;DHT22;9031;50.974;11.330;2023-10-13T09:11:25;19.80;99.90
17815;DHT22;9031;50.974;11.330;2023-10-13T09:13:52;19.70;99.90
17815;DHT22;9031;50.974;11.330;2023-10-13T09:16:18;19.80;99.90
17815;DHT22;9031;50.974;11.330;2023-10-13T09:19:02;20.00;99.90
17815;DHT22;9031;50.974;11.330;2023-10-13T09:21:40;20.10;99.90
17815;DHT22;9031;50.974;11.330;2023-10-13T09:24:08;20.20;99.90
17815;DHT22;9031;50.974;11.330;2023-10-13T09:26:52;20.30;99.90
17815;DHT22;9031;50.974;11.330;2023-10-13T09:29:22;20.30;99.90
17815;DHT22;9031;50.974;11.330;2023-10-13T09:31:58;20.30;99.90
17815;DHT22;9031;50.974;11.330;2023-10-13T09:34:25;20.50;99.90
17815;DHT22;9031;50.974;11.330;2023-10-13T09:37:00;20.70;99.90
17815;DHT22;9031;50.974;11.330;2023-10-13T09:39:28;20.70;99.90
17815;DHT22;9031;50.974;11.330;2023-10-13T09:42:07;20.80;99.90
17815;DHT22;9031;50.974;11.330;2023-10-13T09:44:36;20.80;99.90
17815;DHT22;9031;50.974;11.330;2023-10-13T09:47:03;20.80;99.90
17815;DHT22;9031;50.974;11.330;2023-10-13T09:49:38;20.80;99.90
17815;DHT22;9031;50.974;11.330;2023-10-13T09:52:14;21.10;99.90
17815;DHT22;9031;50.974;11.330;2023-10-13T09:54:58;21.10;99.90
17815;DHT22;9031;50.974;11.330;2023-10-13T09:57:33;21.00;99.90
17815;DHT22;9031;50.974;11.330;2023-10-13T10:00:14;20.90;99.90
17815;DHT22;9031;50.974;11.330;2023-10-13T10:03:01;20.90;99.90
17815;DHT22;9031;50.974;11.330;2023-10-13T10:05:56;20.90;99.90
17815;DHT22;9031;50.974;11.330;2023-10-13T10:08:29;21.00;99.90
17815;DHT22;9031;50.974;11.330;2023-10-13T10:11:26;21.10;99.90
17815;DHT22;9031;50.974;11.330;2023-10-13T10:14:09;21.00;99.90
17815;DHT22;9031;50.974;11.330;2023-10-13T10:16:53;21.00;99.90
17815;DHT22;9031;50.974;11.330;2023-10-13T10:19:20;20.90;99.90
17815;DHT22;9031;50.974;11.330;2023-10-13T10:21:46;21.10;99.90
17815;DHT22;9031;50.974;11.330;2023-10-13T10:24:20;21.40;99.90
17815;DHT22;9031;50.974;11.330;2023-10-13T10:26:52;21.80;99.90
17815;DHT22;9031;50.974;11.330;2023-10-13T10:29:17;21.90;99.90
17815;DHT22;9031;50.974;11.330;2023-10-13T10:31:43;21.80;99.90
17815;DHT22;9031;50.974;11.330;2023-10-13T10:34:17;21.60;99.90
17815;DHT22;9031;50.974;11.330;2023-10-13T10:36:54;21.60;99.90
17815;DHT22;9031;50.974;11.330;2023-10-13T10:39:20;21.70;99.90
17815;DHT22;9031;50.974;11.330;2023-10-13T10:41:47;21.80;99.90
17815;DHT22;9031;50.974;11.330;2023-10-13T10:44:19;21.90;99.90
17815;DHT22;9031;50.974;11.330;2023-10-13T10:46:51;21.90;99.90
17815;DHT22;9031;50.974;11.330;2023-10-13T10:49:19;22.00;99.90
17815;DHT22;9031;50.974;11.330;2023-10-13T10:51:59;22.00;99.90
17815;DHT22;9031;50.974;11.330;2023-10-13T10:54:30;22.10;99.90
17815;DHT22;9031;50.974;11.330;2023-10-13T10:56:59;22.30;99.90
17815;DHT22;9031;50.974;11.330;2023-10-13T10:59:42;22.40;99.90
17815;DHT22;9031;50.974;11.330;2023-10-13T11:02:08;22.50;99.90
17815;DHT22;9031;50.974;11.330;2023-10-13T11:04:41;22.70;99.90
17815;DHT22;9031;50.974;11.330;2023-10-13T11:07:25;23.10;99.90
17815;DHT22;9031;50.974;11.330;2023-10-13T11:09:53;23.40;99.90
17815;DHT22;9031;50.974;11.330;2023-10-13T11:12:19;23.20;99.90
17815;DHT22;9031;50.974;11.330;2023-10-13T11:15:06;23.00;99.90
17815;DHT22;9031;50.974;11.330;2023-10-13T11:17:51;23.00;99.90
17815;DHT22;9031;50.974;11.330;2023-10-13T11:20:20;23.00;99.90
17815;DHT22;9031;50.974;11.330;2023-10-13T11:22:51;23.00;99.90
17815;DHT22;9031;50.974;11.330;2023-10-13T11:25:23;23.20;99.90
17815;DHT22;9031;50.974;11.330;2023-10-13T11:27:48;23.60;99.90
17815;DHT22;9031;50.974;11.330;2023-10-13T11:30:15;23.80;99.90
17815;DHT22;9031;50.974;11.330;2023-10-13T11:33:10;23.60;99.90
17815;DHT22;9031;50.974;11.330;2023-10-13T11:35:38;25.50;99.90
17815;DHT22;9031;50.974;11.330;2023-10-13T11:38:19;26.10;99.90
17815;DHT22;9031;50.974;11.330;2023-10-13T11:41:04;26.60;99.90
17815;DHT22;9031;50.974;11.330;2023-10-13T11:43:33;27.90;99.90
17815;DHT22;9031;50.974;11.330;2023-10-13T11:46:14;29.00;99.90
17815;DHT22;9031;50.974;11.330;2023-10-13T11:48:44;29.50;99.90
17815;DHT22;9031;50.974;11.330;2023-10-13T11:51:12;30.70;99.10
17815;DHT22;9031;50.974;11.330;2023-10-13T11:53:50;30.50;97.60
17815;DHT22;9031;50.974;11.330;2023-10-13T11:56:19;30.10;97.50
17815;DHT22;9031;50.974;11.330;2023-10-13T11:58:46;30.10;96.20
17815;DHT22;9031;50.974;11.330;2023-10-13T12:01:12;29.80;96.40
17815;DHT22;9031;50.974;11.330;2023-10-13T12:03:42;28.90;97.50
17815;DHT22;9031;50.974;11.330;2023-10-13T12:06:31;28.90;96.90
17815;DHT22;9031;50.974;11.330;2023-10-13T12:09:07;28.10;97.50
17815;DHT22;9031;50.974;11.330;2023-10-13T12:11:42;28.20;97.60
17815;DHT22;9031;50.974;11.330;2023-10-13T12:14:10;27.50;98.10
17815;DHT22;9031;50.974;11.330;2023-10-13T12:16:48;25.90;99.90
17815;DHT22;9031;50.974;11.330;2023-10-13T12:19:25;25.00;99.90
17815;DHT22;9031;50.974;11.330;2023-10-13T12:21:54;26.40;99.90
17815;DHT22;9031;50.974;11.330;2023-10-13T12:24:21;26.90;99.00
17815;DHT22;9031;50.974;11.330;2023-10-13T12:29:28;27.60;97.80
17815;DHT22;9031;50.974;11.330;2023-10-13T12:31:55;27.50;97.70
17815;DHT22;9031;50.974;11.330;2023-10-13T12:34:40;28.10;97.80
17815;DHT22;9031;50.974;11.330;2023-10-13T12:37:27;29.00;95.50
17815;DHT22;9031;50.974;11.330;2023-10-13T12:40:13;29.00;94.90
17815;DHT22;9031;50.974;11.330;2023-10-13T12:42:57;28.80;94.80
17815;DHT22;9031;50.974;11.330;2023-10-13T12:45:43;28.20;95.90
17815;DHT22;9031;50.974;11.330;2023-10-13T12:48:27;27.60;96.60
17815;DHT22;9031;50.974;11.330;2023-10-13T12:51:11;27.70;96.30
17815;DHT22;9031;50.974;11.330;2023-10-13T12:53:56;28.00;96.40
17815;DHT22;9031;50.974;11.330;2023-10-13T12:56:30;27.70;95.40
17815;DHT22;9031;50.974;11.330;2023-10-13T12:58:56;27.10;96.80
17815;DHT22;9031;50.974;11.330;2023-10-13T13:01:23;26.50;97.70
17815;DHT22;9031;50.974;11.330;2023-10-13T13:03:51;26.90;97.50
17815;DHT22;9031;50.974;11.330;2023-10-13T13:06:24;27.30;96.80
17815;DHT22;9031;50.974;11.330;2023-10-13T13:09:00;27.50;96.70
17815;DHT22;9031;50.974;11.330;2023-10-13T13:11:26;27.00;96.40
17815;DHT22;9031;50.974;11.330;2023-10-13T13:13:53;26.80;97.30
17815;DHT22;9031;50.974;11.330;2023-10-13T13:16:19;26.40;97.70
17815;DHT22;9031;50.974;11.330;2023-10-13T13:18:49;26.00;97.70
17815;DHT22;9031;50.974;11.330;2023-10-13T13:21:15;25.90;98.10
17815;DHT22;9031;50.974;11.330;2023-10-13T13:23:47;26.10;98.30
17815;DHT22;9031;50.974;11.330;2023-10-13T13:26:12;26.30;98.20
17815;DHT22;9031;50.974;11.330;2023-10-13T13:28:47;26.20;98.10
17815;DHT22;9031;50.974;11.330;2023-10-13T13:31:16;25.80;97.50
17815;DHT22;9031;50.974;11.330;2023-10-13T13:33:42;25.80;97.60
17815;DHT22;9031;50.974;11.330;2023-10-13T13:36:09;25.70;97.60
17815;DHT22;9031;50.974;11.330;2023-10-13T13:38:40;25.50;97.60
17815;DHT22;9031;50.974;11.330;2023-10-13T13:41:13;25.20;97.40
17815;DHT22;9031;50.974;11.330;2023-10-13T13:43:51;25.10;98.30
17815;DHT22;9031;50.974;11.330;2023-10-13T13:46:21;25.10;97.20
17815;DHT22;9031;50.974;11.330;2023-10-13T13:48:53;25.20;97.00
17815;DHT22;9031;50.974;11.330;2023-10-13T13:51:25;25.20;96.90
17815;DHT22;9031;50.974;11.330;2023-10-13T13:53:55;25.20;96.90
17815;DHT22;9031;50.974;11.330;2023-10-13T13:56:20;25.00;96.90
17815;DHT22;9031;50.974;11.330;2023-10-13T13:58:48;24.80;97.50
17815;DHT22;9031;50.974;11.330;2023-10-13T14:01:14;24.70;97.70
17815;DHT22;9031;50.974;11.330;2023-10-13T14:03:44;24.60;97.90
17815;DHT22;9031;50.974;11.330;2023-10-13T14:08:56;24.50;97.50
17815;DHT22;9031;50.974;11.330;2023-10-13T14:11:27;24.40;97.80
17815;DHT22;9031;50.974;11.330;2023-10-13T14:14:15;24.60;97.40
17815;DHT22;9031;50.974;11.330;2023-10-13T14:16:50;24.90;97.50
17815;DHT22;9031;50.974;11.330;2023-10-13T14:19:15;25.00;97.40
17815;DHT22;9031;50.974;11.330;2023-10-13T14:21:56;24.90;98.00
17815;DHT22;9031;50.974;11.330;2023-10-13T14:24:23;24.60;98.40
17815;DHT22;9031;50.974;11.330;2023-10-13T14:26:59;24.40;98.90
17815;DHT22;9031;50.974;11.330;2023-10-13T14:29:33;24.20;99.40
17815;DHT22;9031;50.974;11.330;2023-10-13T14:31:59;24.10;99.30
17815;DHT22;9031;50.974;11.330;2023-10-13T14:34:24;23.90;99.60
17815;DHT22;9031;50.974;11.330;2023-10-13T14:36:52;23.80;99.90
17815;DHT22;9031;50.974;11.330;2023-10-13T14:39:19;23.70;99.90
17815;DHT22;9031;50.974;11.330;2023-10-13T14:41:46;23.70;99.90
17815;DHT22;9031;50.974;11.330;2023-10-13T14:44:13;23.60;99.90
17815;DHT22;9031;50.974;11.330;2023-10-13T14:46:39;23.60;99.90
17815;DHT22;9031;50.974;11.330;2023-10-13T14:49:05;23.70;99.90
17815;DHT22;9031;50.974;11.330;2023-10-13T14:51:31;23.80;99.90
17815;DHT22;9031;50.974;11.330;2023-10-13T14:54:04;23.80;99.90
17815;DHT22;9031;50.974;11.330;2023-10-13T14:56:30;23.80;99.90
17815;DHT22;9031;50.974;11.330;2023-10-13T14:58:56;23.70;99.90
17815;DHT22;9031;50.974;11.330;2023-10-13T15:01:23;23.70;99.90
17815;DHT22;9031;50.974;11.330;2023-10-13T15:03:53;23.70;99.90
17815;DHT22;9031;50.974;11.330;2023-10-13T15:06:24;23.60;99.90
17815;DHT22;9031;50.974;11.330;2023-10-13T15:08:52;23.50;99.90
17815;DHT22;9031;50.974;11.330;2023-10-13T15:11:20;23.50;99.90
17815;DHT22;9031;50.974;11.330;2023-10-13T15:13:46;23.40;99.90
17815;DHT22;9031;50.974;11.330;2023-10-13T15:16:15;23.30;99.90
17815;DHT22;9031;50.974;11.330;2023-10-13T15:18:45;23.30;99.90
17815;DHT22;9031;50.974;11.330;2023-10-13T15:21:18;23.20;99.90
17815;DHT22;9031;50.974;11.330;2023-10-13T15:23:43;23.20;99.90
17815;DHT22;9031;50.974;11.330;2023-10-13T15:26:09;23.20;99.90
17815;DHT22;9031;50.974;11.330;2023-10-13T15:28:36;23.10;99.90
17815;DHT22;9031;50.974;11.330;2023-10-13T15:31:10;23.10;99.90
17815;DHT22;9031;50.974;11.330;2023-10-13T15:33:50;23.10;99.90
17815;DHT22;9031;50.974;11.330;2023-10-13T15:36:18;23.00;99.90
17815;DHT22;9031;50.974;11.330;2023-10-13T15:38:45;23.00;99.90
17815;DHT22;9031;50.974;11.330;2023-10-13T15:41:20;23.00;99.90
17815;DHT22;9031;50.974;11.330;2023-10-13T15:43:46;23.00;99.90
17815;DHT22;9031;50.974;11.330;2023-10-13T15:46:16;23.00;99.90
17815;DHT22;9031;50.974;11.330;2023-10-13T15:48:53;23.00;99.90
17815;DHT22;9031;50.974;11.330;2023-10-13T15:51:19;22.90;99.90
17815;DHT22;9031;50.974;11.330;2023-10-13T15:53:45;22.90;99.90
17815;DHT22;9031;50.974;11.330;2023-10-13T15:56:13;22.90;99.90
17815;DHT22;9031;50.974;11.330;2023-10-13T15:58:45;22.90;99.90
17815;DHT22;9031;50.974;11.330;2023-10-13T16:01:14;22.90;99.90
17815;DHT22;9031;50.974;11.330;2023-10-13T16:03:41;22.90;99.90
17815;DHT22;9031;50.974;11.330;2023-10-13T16:06:15;22.90;99.90
17815;DHT22;9031;50.974;11.330;2023-10-13T16:08:40;22.90;99.90
17815;DHT22;9031;50.974;11.330;2023-10-13T16:11:10;22.80;99.90
17815;DHT22;9031;50.974;11.330;2023-10-13T16:13:43;22.80;99.90
17815;DHT22;9031;50.974;11.330;2023-10-13T16:16:16;22.80;99.90
17815;DHT22;9031;50.974;11.330;2023-10-13T16:18:43;22.80;99.90
17815;DHT22;9031;50.974;11.330;2023-10-13T16:21:09;22.80;99.90